Airfield :







YOU CAN JOIN US ON...

 
LOGIN :

Register | Disclaimer

   EN    FR    IT 

 









Legend :    VFR   Marginal VFR   IFR   Intensive IFR   Very Intensive IFR
Visi :
Ceiling :
>= 8 km
>= 3000ft
5 to 8 km
1000 to 3000 ft
1500m to 5 km
500 to 1000 ft
800 to 1500m
200 to 500 ft
< 800m
< 200 ft
Symbols :   Thunderstorms  Fog  Heavy snow  Heavy precipitations  Wind > 20 kt






- Airport Elevation : 271 ft


KBAF - Barnes Municipal

CURRENT METAR :
  • 250353Z AUTO 34007KT 10SM OVC100 19/13 A2975 RMK AO2 SLP071 T01940133

EXPIRED METARs :
  • 250253Z AUTO 32011KT 10SM BKN080 19/13 A2973 RMK AO2 SLP065 T01940133 53024
  • 250153Z 33012KT 10SM CLR 19/13 A2971 RMK AO2 SLP057 T01940133
  • 250053Z 32012G21KT 10SM BKN038 20/14 A2967 RMK AO2 SLP046 T02000144
  • 242353Z 31011G21KT 10SM OVC038 21/15 A2966 RMK AO2 SLP041 T02060150 10250 20206 53030

TAF KBAF
Valid from the 25 at 00:00 until the 26 at 00:00 UTC


242320Z 2500/2524 33012G20KT P6SM BKN040
FM250200 34011KT P6SM FEW110
FM251200 33005KT P6SM SKC
FM251500 31013KT P6SM SKC
FM252100 24007KT P6SM FEW250
KZBW FIR / North America



MET'MAP, your aeronautical weather chart ! - Copyright ORBIFLY December 2007 - Disclaimer

ORBIFLY MET'MAP TEAM :

Programming & Development : Alexandra Zaïnal
Original concept : Baudouin d'Aumeries
Technical & hardware support : Manuel Goepfert
Assistance : Marc-Olivier Méhu




SOURCES & CREDITS :

   NOAA